createdAt,value
2019-02-19T00:01:46.904Z,5.50
2019-02-19T00:04:15.521Z,5.43
2019-02-19T00:06:44.121Z,6.00
2019-02-19T00:09:12.772Z,6.50
2019-02-19T00:11:41.674Z,6.17
2019-02-19T00:14:10.285Z,6.27
2019-02-19T00:16:38.856Z,5.73
2019-02-19T00:19:07.460Z,5.87
2019-02-19T00:21:36.029Z,6.30
2019-02-19T00:24:04.701Z,5.33
2019-02-19T00:26:33.313Z,6.40
2019-02-19T00:29:01.923Z,6.40
2019-02-19T00:31:30.806Z,6.00
2019-02-19T00:33:59.678Z,6.23
2019-02-19T00:36:28.259Z,5.40
2019-02-19T00:38:56.845Z,6.37
2019-02-19T00:41:25.438Z,5.97
2019-02-19T00:43:54.030Z,6.97
2019-02-19T00:46:22.622Z,5.70
2019-02-19T00:48:52.273Z,6.17
2019-02-19T00:51:20.878Z,5.50
2019-02-19T00:53:49.467Z,6.47
2019-02-19T00:56:18.071Z,6.80
2019-02-19T00:58:46.685Z,5.50
2019-02-19T01:01:15.297Z,6.40
2019-02-19T01:03:44.010Z,6.63
2019-02-19T01:06:12.922Z,6.17
2019-02-19T01:08:41.861Z,6.27
2019-02-19T01:11:10.480Z,6.23
2019-02-19T01:13:39.303Z,6.73
2019-02-19T01:16:08.078Z,6.13
2019-02-19T01:18:36.744Z,6.70
2019-02-19T01:21:05.657Z,5.93
2019-02-19T01:23:34.240Z,6.77
2019-02-19T01:26:02.917Z,6.47
2019-02-19T01:28:31.506Z,6.33
2019-02-19T01:31:00.077Z,5.90
2019-02-19T01:33:28.672Z,5.90
2019-02-19T01:35:57.528Z,5.97
2019-02-19T01:38:26.354Z,6.17
2019-02-19T01:40:54.939Z,6.50
2019-02-19T01:43:23.827Z,5.70
2019-02-19T01:45:52.400Z,6.57
2019-02-19T01:48:21.075Z,6.63
2019-02-19T01:50:49.691Z,5.60
2019-02-19T01:53:18.271Z,6.03
2019-02-19T01:55:46.973Z,6.10
2019-02-19T01:58:15.556Z,5.90
2019-02-19T02:00:44.407Z,5.90
2019-02-19T02:03:12.995Z,6.63
2019-02-19T02:05:41.589Z,6.80
2019-02-19T02:08:10.284Z,5.80
2019-02-19T02:10:38.878Z,6.20
2019-02-19T02:13:07.689Z,6.70
2019-02-19T02:15:42.493Z,5.90
2019-02-19T02:18:06.678Z,5.90
2019-02-19T02:20:35.561Z,6.20
2019-02-19T02:23:04.296Z,6.37
2019-02-19T02:25:32.934Z,6.20
2019-02-19T02:28:01.525Z,5.93
2019-02-19T02:30:30.127Z,6.27
2019-02-19T02:32:58.713Z,5.93
2019-02-19T02:35:27.386Z,5.50
2019-02-19T02:37:55.998Z,5.70
2019-02-19T02:40:24.628Z,6.00
2019-02-19T02:42:53.226Z,5.40
2019-02-19T02:45:22.078Z,5.97
2019-02-19T02:47:50.641Z,5.80
2019-02-19T02:50:19.523Z,5.10
2019-02-19T02:52:48.383Z,5.90
2019-02-19T02:55:17.218Z,6.17
2019-02-19T02:57:45.827Z,5.73
2019-02-19T03:00:14.459Z,5.50
2019-02-19T03:02:43.219Z,5.90
2019-02-19T03:05:11.817Z,5.73
2019-02-19T03:07:43.432Z,6.00
2019-02-19T03:10:12.358Z,5.70
2019-02-19T03:12:40.972Z,5.73
2019-02-19T03:15:10.085Z,6.20
2019-02-19T03:17:38.737Z,6.10
2019-02-19T03:20:07.478Z,6.03
2019-02-19T03:22:36.421Z,5.90
2019-02-19T03:25:05.136Z,6.97
2019-02-19T03:27:34.775Z,7.10
2019-02-19T03:30:03.474Z,7.00
2019-02-19T03:32:32.293Z,6.70
2019-02-19T03:35:00.878Z,6.83
2019-02-19T03:37:29.496Z,6.63
2019-02-19T03:39:58.121Z,6.67
2019-02-19T03:42:26.650Z,6.83
2019-02-19T03:44:55.226Z,6.60
2019-02-19T03:47:23.881Z,6.70
2019-02-19T03:49:52.483Z,6.77
2019-02-19T03:52:21.333Z,7.13
2019-02-19T03:54:49.960Z,7.30
2019-02-19T03:57:18.531Z,7.60
2019-02-19T03:59:47.338Z,7.60
2019-02-19T04:02:16.020Z,7.00
2019-02-19T04:04:44.694Z,7.17
2019-02-19T04:07:13.515Z,7.50
2019-02-19T04:09:42.141Z,7.80
2019-02-19T04:12:10.724Z,7.43
2019-02-19T04:14:39.355Z,8.27
2019-02-19T04:17:08.171Z,7.50
2019-02-19T04:19:36.772Z,9.90
2019-02-19T04:22:05.419Z,9.90
2019-02-19T04:24:34.000Z,9.40
2019-02-19T04:27:02.623Z,9.50
2019-02-19T04:29:31.200Z,10.27
2019-02-19T04:31:59.812Z,9.37
2019-02-19T04:34:28.435Z,10.30
2019-02-19T04:36:57.074Z,10.73
2019-02-19T04:39:25.662Z,10.67
2019-02-19T04:41:55.232Z,11.90
2019-02-19T04:44:24.143Z,12.50
2019-02-19T04:46:52.731Z,12.90
2019-02-19T04:49:21.359Z,13.60
2019-02-19T04:51:49.971Z,14.30
2019-02-19T04:54:18.808Z,16.13
2019-02-19T04:56:47.409Z,16.73
2019-02-19T04:59:16.026Z,17.73
2019-02-19T05:01:44.621Z,20.87
2019-02-19T05:04:13.215Z,23.37
2019-02-19T05:06:41.884Z,24.60
2019-02-19T05:09:10.484Z,23.60
2019-02-19T05:11:39.066Z,24.03
2019-02-19T05:14:07.673Z,25.77
2019-02-19T05:16:40.792Z,26.60
2019-02-19T05:19:06.904Z,25.33
2019-02-19T05:21:35.754Z,25.00
2019-02-19T05:24:04.666Z,25.33
2019-02-19T05:26:33.238Z,28.63
2019-02-19T05:29:02.112Z,28.20
2019-02-19T05:31:30.683Z,31.40
2019-02-19T05:33:59.251Z,31.40
2019-02-19T05:36:27.853Z,33.20
2019-02-19T05:38:56.436Z,34.07
2019-02-19T05:41:25.031Z,31.03
2019-02-19T05:43:53.607Z,34.53
2019-02-19T05:46:22.204Z,32.60
2019-02-19T05:48:50.790Z,29.23
2019-02-19T05:51:19.487Z,29.20
2019-02-19T05:53:48.058Z,30.03
2019-02-19T05:56:16.770Z,26.97
2019-02-19T05:58:45.364Z,30.00
2019-02-19T06:01:14.070Z,29.73
2019-02-19T06:03:42.700Z,29.40
2019-02-19T06:06:11.409Z,27.03
2019-02-19T06:08:40.355Z,28.00
2019-02-19T06:11:09.276Z,26.80
2019-02-19T06:13:38.047Z,24.80
2019-02-19T06:16:06.678Z,28.50
2019-02-19T06:18:35.294Z,25.23
2019-02-19T06:21:03.876Z,25.20
2019-02-19T06:23:32.490Z,22.13
2019-02-19T06:26:01.116Z,22.50
2019-02-19T06:28:30.019Z,19.00
2019-02-19T06:30:58.624Z,20.73
2019-02-19T06:33:27.242Z,20.57
2019-02-19T06:35:55.982Z,18.23
2019-02-19T06:38:24.941Z,16.17
2019-02-19T06:40:54.161Z,16.00
2019-02-19T06:43:22.807Z,13.70
2019-02-19T06:45:51.744Z,12.70
2019-02-19T06:48:20.450Z,11.20
2019-02-19T06:50:49.072Z,11.20
2019-02-19T06:53:17.818Z,10.83
2019-02-19T06:55:46.665Z,10.33
2019-02-19T06:58:16.317Z,12.07
2019-02-19T07:00:45.202Z,11.37
2019-02-19T07:03:19.003Z,11.07
2019-02-19T07:05:47.611Z,10.57
2019-02-19T07:08:16.574Z,12.53
2019-02-19T07:10:45.295Z,12.77
2019-02-19T07:13:14.148Z,12.67
2019-02-19T07:15:43.231Z,13.77
2019-02-19T07:18:11.863Z,14.03
2019-02-19T07:20:40.480Z,15.30
2019-02-19T07:23:09.095Z,16.90
2019-02-19T07:25:37.916Z,16.33
2019-02-19T07:28:06.601Z,17.07
2019-02-19T07:30:35.269Z,17.57
2019-02-19T07:33:03.857Z,18.17
2019-02-19T07:35:32.471Z,17.40
2019-02-19T07:38:01.064Z,18.17
2019-02-19T07:40:29.795Z,14.57
2019-02-19T07:42:58.423Z,15.83
2019-02-19T07:45:27.047Z,16.53
2019-02-19T07:47:55.669Z,14.90
2019-02-19T07:50:24.264Z,15.37
2019-02-19T07:52:52.872Z,15.90
2019-02-19T07:55:21.559Z,15.70
2019-02-19T07:57:50.414Z,16.73
2019-02-19T08:00:19.388Z,16.70
2019-02-19T08:02:48.027Z,17.17
2019-02-19T08:05:16.652Z,17.50
2019-02-19T08:07:45.306Z,17.43
2019-02-19T08:10:14.037Z,18.70
2019-02-19T08:12:42.736Z,18.67
2019-02-19T08:15:11.455Z,18.10
2019-02-19T08:17:40.047Z,17.87
2019-02-19T08:20:15.315Z,19.57
2019-02-19T08:22:39.219Z,20.40
2019-02-19T08:25:08.020Z,21.27
2019-02-19T08:27:36.634Z,21.73
2019-02-19T08:30:05.740Z,20.70
2019-02-19T08:32:34.374Z,20.47
2019-02-19T08:35:03.145Z,20.83
2019-02-19T08:37:31.801Z,20.40
2019-02-19T08:40:00.360Z,21.73
2019-02-19T08:42:28.951Z,21.33
2019-02-19T08:44:57.836Z,20.43
2019-02-19T08:47:26.969Z,21.90
2019-02-19T08:49:55.614Z,20.37
2019-02-19T08:52:24.631Z,21.77
2019-02-19T08:54:53.284Z,21.67
2019-02-19T08:57:21.875Z,23.17
2019-02-19T08:59:50.769Z,19.07
2019-02-19T09:02:19.442Z,18.70
2019-02-19T09:04:48.260Z,19.13
2019-02-19T09:07:16.862Z,16.30
2019-02-19T09:09:45.431Z,16.87
2019-02-19T09:12:14.044Z,17.03
2019-02-19T09:14:42.630Z,19.70
2019-02-19T09:17:11.223Z,15.47
2019-02-19T09:19:39.868Z,15.17
2019-02-19T09:22:08.484Z,15.23
2019-02-19T09:24:37.113Z,16.50
2019-02-19T09:27:05.695Z,15.97
2019-02-19T09:29:34.559Z,15.33
2019-02-19T09:32:03.146Z,17.10
2019-02-19T09:34:31.730Z,17.00
2019-02-19T09:37:00.301Z,15.23
2019-02-19T09:39:28.923Z,15.40
2019-02-19T09:41:57.506Z,16.77
2019-02-19T09:44:26.129Z,15.80
2019-02-19T09:46:54.734Z,16.33
2019-02-19T09:49:23.596Z,16.10
2019-02-19T09:51:52.197Z,15.97
2019-02-19T09:54:20.854Z,16.27
2019-02-19T09:56:49.437Z,17.40
2019-02-19T09:59:19.026Z,17.10
2019-02-19T10:01:47.854Z,15.90
2019-02-19T10:04:16.456Z,14.40
2019-02-19T10:06:45.539Z,15.47
2019-02-19T10:09:14.384Z,15.10
2019-02-19T10:11:42.962Z,14.77
2019-02-19T10:14:11.563Z,15.33
2019-02-19T10:16:41.922Z,13.40
2019-02-19T10:19:10.569Z,12.10
2019-02-19T10:21:39.403Z,12.50
2019-02-19T10:24:08.067Z,12.17
2019-02-19T10:26:36.657Z,10.67
2019-02-19T10:29:05.910Z,11.33
2019-02-19T10:31:34.508Z,11.57
2019-02-19T10:34:03.096Z,10.43
2019-02-19T10:36:31.707Z,10.93
2019-02-19T10:39:00.334Z,11.50
2019-02-19T10:41:29.196Z,10.63
2019-02-19T10:43:57.775Z,10.90
2019-02-19T10:46:26.356Z,9.30
2019-02-19T10:48:54.935Z,10.80
2019-02-19T10:51:23.521Z,8.53
2019-02-19T10:53:52.108Z,9.40
2019-02-19T10:56:20.708Z,8.70
2019-02-19T10:58:49.272Z,8.87
2019-02-19T11:01:17.878Z,10.60
2019-02-19T11:03:46.465Z,9.60
2019-02-19T11:06:15.150Z,10.20
2019-02-19T11:08:43.760Z,11.13
2019-02-19T11:11:12.362Z,10.87
2019-02-19T11:13:41.379Z,10.90
2019-02-19T11:16:09.992Z,10.60
2019-02-19T11:18:39.068Z,10.50
2019-02-19T11:21:07.700Z,10.20
2019-02-19T11:23:36.306Z,10.60
2019-02-19T11:26:04.893Z,10.27
2019-02-19T11:28:33.697Z,10.40
2019-02-19T11:31:02.323Z,10.30
2019-02-19T11:33:31.435Z,8.30
2019-02-19T11:36:00.071Z,8.50
2019-02-19T11:38:28.666Z,8.10
2019-02-19T11:40:57.345Z,7.30
2019-02-19T11:43:26.296Z,7.80
2019-02-19T11:45:55.321Z,6.30
2019-02-19T11:48:23.926Z,6.50
2019-02-19T11:50:52.523Z,5.60
2019-02-19T11:53:22.308Z,6.03
2019-02-19T11:55:50.992Z,7.13
2019-02-19T11:58:20.283Z,6.70
2019-02-19T12:00:48.945Z,7.33
2019-02-19T12:03:17.609Z,6.80
2019-02-19T12:05:46.310Z,6.70
2019-02-19T12:08:15.086Z,6.80
2019-02-19T12:10:43.680Z,6.57
2019-02-19T12:13:12.277Z,6.60
2019-02-19T12:15:41.113Z,6.90
2019-02-19T12:18:09.698Z,5.83
2019-02-19T12:20:38.311Z,6.23
2019-02-19T12:23:07.083Z,5.73
2019-02-19T12:25:35.685Z,5.83
2019-02-19T12:28:04.530Z,6.60
2019-02-19T12:30:33.213Z,6.80
2019-02-19T12:33:01.972Z,5.83
2019-02-19T12:35:30.606Z,5.57
2019-02-19T12:37:59.302Z,6.57
2019-02-19T12:40:27.947Z,6.10
2019-02-19T12:42:56.463Z,5.93
2019-02-19T12:45:25.052Z,6.10
2019-02-19T12:47:53.678Z,6.50
2019-02-19T12:50:22.327Z,6.13
2019-02-19T12:52:51.157Z,6.40
2019-02-19T12:55:19.771Z,6.67
2019-02-19T12:57:48.381Z,6.17
2019-02-19T13:00:17.094Z,7.13
2019-02-19T13:02:45.891Z,6.60
2019-02-19T13:05:14.624Z,7.20
2019-02-19T13:07:43.277Z,6.47
2019-02-19T13:10:12.220Z,6.47
2019-02-19T13:12:41.050Z,6.43
2019-02-19T13:15:11.477Z,6.60
2019-02-19T13:17:40.312Z,7.43
2019-02-19T13:20:10.683Z,7.67
2019-02-19T13:22:39.255Z,6.83
2019-02-19T13:25:08.555Z,7.17
2019-02-19T13:27:37.126Z,7.83
2019-02-19T13:30:07.266Z,7.30
2019-02-19T13:32:36.194Z,8.08
2019-02-19T13:35:05.119Z,8.13
2019-02-19T13:37:33.709Z,7.70
2019-02-19T13:40:02.321Z,7.33
2019-02-19T13:42:30.905Z,7.37
2019-02-19T13:44:59.506Z,10.20
2019-02-19T13:47:28.159Z,7.50
2019-02-19T13:49:56.978Z,8.30
2019-02-19T13:52:39.644Z,9.30
2019-02-19T13:55:15.369Z,8.00
2019-02-19T13:57:44.002Z,8.07
2019-02-19T14:00:18.380Z,7.53
2019-02-19T14:02:46.974Z,7.00
2019-02-19T14:05:15.559Z,6.43
2019-02-19T14:07:44.146Z,7.60
2019-02-19T14:10:12.926Z,7.90
2019-02-19T14:12:41.532Z,8.37
2019-02-19T14:15:29.373Z,8.47
2019-02-19T14:17:58.691Z,8.43
2019-02-19T14:20:34.250Z,8.67
2019-02-19T14:23:15.428Z,8.23
2019-02-19T14:26:09.473Z,8.00
2019-02-19T14:28:57.061Z,7.60
2019-02-19T14:31:43.174Z,9.13
2019-02-19T14:34:23.154Z,7.77
2019-02-19T14:37:09.326Z,7.37
2019-02-19T14:39:57.770Z,7.13
2019-02-19T14:42:38.355Z,7.20
2019-02-19T14:45:14.481Z,7.00
2019-02-19T14:48:14.088Z,8.10
2019-02-19T14:50:53.445Z,7.97
2019-02-19T14:53:59.122Z,7.27
2019-02-19T14:56:35.116Z,7.37
2019-02-19T14:59:21.090Z,8.60
2019-02-19T15:02:08.103Z,7.97
2019-02-19T15:04:56.814Z,6.27
2019-02-19T15:07:32.310Z,7.10
2019-02-19T15:10:32.354Z,6.80
2019-02-19T15:13:11.090Z,6.77
2019-02-19T15:15:57.499Z,6.10
2019-02-19T15:18:43.788Z,5.87
2019-02-19T15:21:26.803Z,5.17
2019-02-19T15:24:26.435Z,5.87
2019-02-19T15:27:12.929Z,7.00
2019-02-19T15:29:59.517Z,17.90
2019-02-19T15:32:41.395Z,5.30
2019-02-19T15:35:27.812Z,5.00
2019-02-19T15:38:16.330Z,4.70
2019-02-19T15:41:07.051Z,4.67
2019-02-19T15:43:51.248Z,4.43
2019-02-19T15:46:45.272Z,4.50
2019-02-19T15:49:31.867Z,5.07
2019-02-19T15:52:23.568Z,4.73
2019-02-19T15:55:11.335Z,5.17
2019-02-19T15:57:53.560Z,4.87
2019-02-19T16:00:47.332Z,4.77
2019-02-19T16:03:23.082Z,4.53
2019-02-19T16:05:56.721Z,5.00
2019-02-19T16:08:33.693Z,4.00
2019-02-19T16:11:10.369Z,3.90
2019-02-19T16:13:51.589Z,4.40
2019-02-19T16:16:48.697Z,4.50
2019-02-19T16:19:25.402Z,3.87
2019-02-19T16:22:16.262Z,3.90
2019-02-19T16:25:16.422Z,4.60
2019-02-19T16:27:58.363Z,4.47
2019-02-19T16:30:46.098Z,4.73
2019-02-19T16:33:33.183Z,4.43
2019-02-19T16:36:30.404Z,4.40
2019-02-19T16:39:13.506Z,4.63
2019-02-19T16:41:51.480Z,4.83
2019-02-19T16:44:48.256Z,4.87
2019-02-19T16:47:42.730Z,3.80
2019-02-19T16:50:30.105Z,5.73
2019-02-19T16:53:03.461Z,4.67
2019-02-19T16:55:38.764Z,7.00
2019-02-19T16:58:16.785Z,5.00
2019-02-19T17:00:55.096Z,4.97
2019-02-19T17:03:38.184Z,4.90
2019-02-19T17:06:22.396Z,5.40
2019-02-19T17:09:02.376Z,4.20
2019-02-19T17:11:44.918Z,5.07
2019-02-19T17:14:33.554Z,5.63
2019-02-19T17:17:14.318Z,4.83
2019-02-19T17:20:17.565Z,4.70
2019-02-19T17:22:48.830Z,5.40
2019-02-19T17:25:35.082Z,5.20
2019-02-19T17:28:18.051Z,4.93
2019-02-19T17:31:04.699Z,4.90
2019-02-19T17:33:51.149Z,5.53
2019-02-19T17:36:32.055Z,5.33
2019-02-19T17:39:34.670Z,5.77
2019-02-19T17:42:11.020Z,6.10
2019-02-19T17:44:54.132Z,5.07
2019-02-19T17:47:40.006Z,5.83
2019-02-19T17:50:15.814Z,4.83
2019-02-19T17:53:06.773Z,5.30
2019-02-19T17:55:52.225Z,5.37
2019-02-19T17:58:38.527Z,6.50
2019-02-19T18:01:26.395Z,5.20
2019-02-19T18:04:04.332Z,5.80
2019-02-19T18:07:09.918Z,5.70
2019-02-19T18:09:58.448Z,5.60
2019-02-19T18:12:44.474Z,5.40
2019-02-19T18:15:31.039Z,5.30
2019-02-19T18:18:19.899Z,4.93
2019-02-19T18:20:48.920Z,5.77
2019-02-19T18:23:17.508Z,5.50
2019-02-19T18:25:46.304Z,5.50
2019-02-19T18:28:14.938Z,5.40
2019-02-19T18:30:43.567Z,5.10
2019-02-19T18:33:12.199Z,6.20
2019-02-19T18:35:41.339Z,5.20
2019-02-19T18:38:09.978Z,5.80
2019-02-19T18:40:38.580Z,6.00
2019-02-19T18:43:07.261Z,6.03
2019-02-19T18:45:36.116Z,5.33
2019-02-19T18:48:04.727Z,5.70
2019-02-19T18:50:33.316Z,5.10
2019-02-19T18:53:02.149Z,5.67
2019-02-19T18:55:30.742Z,5.40
2019-02-19T18:57:59.328Z,6.67
2019-02-19T19:00:28.070Z,5.40
2019-02-19T19:02:56.905Z,6.03
2019-02-19T19:05:25.584Z,6.33
2019-02-19T19:07:54.306Z,5.93
2019-02-19T19:10:23.158Z,5.83
2019-02-19T19:12:51.984Z,5.20
2019-02-19T19:15:20.970Z,4.90
2019-02-19T19:17:49.790Z,6.20
2019-02-19T19:20:18.530Z,4.87
2019-02-19T19:22:47.329Z,6.07
2019-02-19T19:25:16.541Z,6.10
2019-02-19T19:27:45.144Z,5.47
2019-02-19T19:30:13.746Z,5.87
2019-02-19T19:32:42.524Z,6.23
2019-02-19T19:35:11.221Z,7.70
2019-02-19T19:37:40.073Z,5.83
2019-02-19T19:40:08.717Z,6.50
2019-02-19T19:42:37.497Z,6.70
2019-02-19T19:45:06.412Z,6.67
2019-02-19T19:47:35.005Z,7.53
2019-02-19T19:50:03.712Z,7.43
2019-02-19T19:52:33.314Z,6.90
2019-02-19T19:55:01.885Z,6.87
2019-02-19T19:57:30.503Z,7.30
2019-02-19T19:59:59.133Z,7.70
2019-02-19T20:02:27.726Z,8.50
2019-02-19T20:04:56.329Z,6.60
2019-02-19T20:07:24.919Z,6.87
2019-02-19T20:09:53.840Z,7.43
2019-02-19T20:12:22.788Z,8.00
2019-02-19T20:14:51.497Z,8.13
2019-02-19T20:17:20.397Z,6.90
2019-02-19T20:19:50.000Z,6.83
2019-02-19T20:22:18.673Z,7.40
2019-02-19T20:24:47.326Z,6.03
2019-02-19T20:27:15.932Z,7.03
2019-02-19T20:29:44.558Z,7.63
2019-02-19T20:32:13.741Z,7.93
2019-02-19T20:34:42.354Z,7.10
2019-02-19T20:37:11.138Z,7.40
2019-02-19T20:39:39.764Z,7.43
2019-02-19T20:42:08.459Z,7.07
2019-02-19T20:44:37.089Z,8.83
2019-02-19T20:47:05.958Z,7.83
2019-02-19T20:49:34.782Z,6.60
2019-02-19T20:52:03.676Z,7.70
2019-02-19T20:54:32.635Z,7.60
2019-02-19T20:57:01.211Z,8.30
2019-02-19T20:59:30.398Z,7.73
2019-02-19T21:01:59.096Z,8.53
2019-02-19T21:04:28.502Z,8.17
2019-02-19T21:06:57.082Z,8.93
2019-02-19T21:09:25.836Z,7.10
2019-02-19T21:11:54.515Z,8.47
2019-02-19T21:14:23.126Z,7.87
2019-02-19T21:16:51.734Z,8.10
2019-02-19T21:19:20.332Z,9.00
2019-02-19T21:21:48.914Z,8.67
2019-02-19T21:24:17.563Z,7.97
2019-02-19T21:26:46.328Z,8.53
2019-02-19T21:29:15.276Z,7.93
2019-02-19T21:31:45.056Z,8.53
2019-02-19T21:34:13.674Z,7.93
2019-02-19T21:36:42.382Z,8.20
2019-02-19T21:39:11.206Z,7.83
2019-02-19T21:41:39.827Z,8.70
2019-02-19T21:44:08.642Z,8.83
2019-02-19T21:46:37.255Z,8.30
2019-02-19T21:49:05.808Z,16.40
2019-02-19T21:51:36.185Z,12.73
2019-02-19T21:54:05.003Z,8.57
2019-02-19T21:56:33.513Z,9.80
2019-02-19T21:59:02.285Z,8.47
2019-02-19T22:01:31.175Z,9.57
2019-02-19T22:03:59.840Z,9.50
2019-02-19T22:06:28.413Z,10.00
2019-02-19T22:08:57.056Z,9.20
2019-02-19T22:11:25.628Z,9.60
2019-02-19T22:13:54.255Z,9.00
2019-02-19T22:16:22.958Z,8.80
2019-02-19T22:18:52.208Z,9.50
2019-02-19T22:21:46.077Z,10.63
2019-02-19T22:24:16.290Z,11.03
2019-02-19T22:26:44.886Z,10.13
2019-02-19T22:29:13.485Z,10.53
2019-02-19T22:31:42.127Z,10.57
2019-02-19T22:34:11.026Z,9.93
2019-02-19T22:36:39.628Z,10.17
2019-02-19T22:39:08.394Z,9.33
2019-02-19T22:41:37.263Z,9.47
2019-02-19T22:44:05.869Z,9.80
2019-02-19T22:46:34.494Z,9.10
2019-02-19T22:49:03.328Z,10.10
2019-02-19T22:51:32.429Z,9.83
2019-02-19T22:54:20.062Z,9.43
2019-02-19T22:56:48.990Z,9.83
2019-02-19T22:59:17.844Z,9.77
2019-02-19T23:01:51.795Z,9.80
2019-02-19T23:04:20.368Z,10.20
2019-02-19T23:06:49.203Z,10.17
2019-02-19T23:09:17.803Z,9.40
2019-02-19T23:11:46.410Z,10.63
2019-02-19T23:14:15.039Z,10.03
2019-02-19T23:16:43.647Z,10.80
2019-02-19T23:19:12.303Z,12.57
2019-02-19T23:21:41.527Z,12.10
2019-02-19T23:24:10.481Z,10.97
2019-02-19T23:26:39.063Z,11.03
2019-02-19T23:29:07.664Z,11.60
2019-02-19T23:31:36.484Z,11.97
2019-02-19T23:34:05.158Z,12.63
2019-02-19T23:36:43.872Z,11.23
2019-02-19T23:39:12.716Z,12.90
2019-02-19T23:41:41.307Z,12.40
2019-02-19T23:44:09.872Z,12.40
2019-02-19T23:46:38.492Z,12.23
2019-02-19T23:51:41.592Z,11.77
2019-02-19T23:54:10.664Z,12.03
2019-02-19T23:56:39.409Z,11.77
2019-02-19T23:59:08.322Z,12.10
